createdAt,value
2019-03-06T00:01:52.800Z,3.40
2019-03-06T00:04:19.737Z,3.73
2019-03-06T00:06:46.875Z,2.87
2019-03-06T00:09:13.948Z,3.20
2019-03-06T00:11:40.877Z,3.83
2019-03-06T00:14:07.826Z,4.00
2019-03-06T00:16:34.767Z,3.83
2019-03-06T00:19:01.719Z,3.53
2019-03-06T00:21:28.651Z,3.97
2019-03-06T00:23:55.604Z,3.80
2019-03-06T00:26:22.550Z,3.50
2019-03-06T00:28:49.504Z,4.03
2019-03-06T00:31:16.509Z,3.17
2019-03-06T00:33:43.435Z,4.37
2019-03-06T00:36:19.940Z,3.40
2019-03-06T00:38:46.947Z,3.10
2019-03-06T00:41:27.932Z,3.67
2019-03-06T00:43:55.127Z,3.17
2019-03-06T00:46:22.060Z,3.80
2019-03-06T00:48:48.995Z,3.87
2019-03-06T00:51:15.952Z,4.00
2019-03-06T00:53:42.876Z,3.60
2019-03-06T00:56:09.861Z,3.57
2019-03-06T00:58:37.091Z,3.37
2019-03-06T01:01:04.049Z,3.80
2019-03-06T01:03:30.983Z,2.87
2019-03-06T01:05:57.918Z,2.87
2019-03-06T01:08:25.047Z,3.43
2019-03-06T01:10:51.993Z,2.77
2019-03-06T01:13:19.182Z,4.43
2019-03-06T01:15:46.138Z,4.17
2019-03-06T01:18:13.181Z,3.97
2019-03-06T01:23:13.770Z,3.10
2019-03-06T01:25:41.303Z,3.50
2019-03-06T01:28:09.182Z,3.67
2019-03-06T01:30:36.369Z,3.60
2019-03-06T01:33:32.142Z,3.27
2019-03-06T01:36:17.555Z,3.37
2019-03-06T01:38:58.449Z,3.30
2019-03-06T01:41:44.212Z,4.00
2019-03-06T01:44:21.078Z,3.37
2019-03-06T01:46:48.043Z,3.67
2019-03-06T01:49:14.975Z,3.50
2019-03-06T01:51:41.974Z,3.90
2019-03-06T01:54:08.930Z,3.07
2019-03-06T01:56:35.991Z,3.67
2019-03-06T01:59:03.158Z,2.90
2019-03-06T02:01:30.124Z,3.10
2019-03-06T02:03:57.074Z,3.60
2019-03-06T02:06:24.079Z,3.13
2019-03-06T02:08:51.023Z,3.47
2019-03-06T02:11:17.972Z,3.73
2019-03-06T02:13:45.137Z,3.70
2019-03-06T02:16:12.077Z,3.43
2019-03-06T02:18:39.311Z,3.07
2019-03-06T02:21:06.291Z,3.80
2019-03-06T02:23:33.206Z,4.00
2019-03-06T02:26:00.210Z,4.20
2019-03-06T02:28:27.150Z,4.20
2019-03-06T02:30:54.099Z,3.77
2019-03-06T02:33:21.342Z,4.10
2019-03-06T02:35:48.541Z,3.60
2019-03-06T02:38:15.497Z,4.30
2019-03-06T02:40:42.440Z,4.20
2019-03-06T02:43:09.401Z,5.23
2019-03-06T02:45:36.319Z,4.10
2019-03-06T02:48:03.408Z,3.97
2019-03-06T02:50:30.326Z,3.70
2019-03-06T02:52:57.296Z,4.20
2019-03-06T02:55:24.213Z,4.87
2019-03-06T02:57:59.213Z,4.53
2019-03-06T03:00:38.515Z,5.10
2019-03-06T03:03:14.001Z,4.23
2019-03-06T03:06:09.888Z,4.23
2019-03-06T03:08:36.815Z,3.40
2019-03-06T03:11:03.975Z,3.83
2019-03-06T03:13:30.915Z,4.40
2019-03-06T03:15:57.891Z,3.40
2019-03-06T03:18:24.839Z,4.27
2019-03-06T03:20:53.401Z,4.20
2019-03-06T03:23:20.387Z,4.50
2019-03-06T03:25:47.309Z,3.90
2019-03-06T03:28:14.277Z,3.97
2019-03-06T03:30:41.235Z,5.10
2019-03-06T03:33:08.189Z,3.70
2019-03-06T03:35:35.163Z,3.80
2019-03-06T03:38:02.164Z,4.63
2019-03-06T03:40:29.077Z,3.47
2019-03-06T03:42:56.018Z,3.90
2019-03-06T03:45:22.963Z,4.00
2019-03-06T03:47:49.890Z,3.60
2019-03-06T03:50:16.827Z,4.30
2019-03-06T03:52:44.310Z,4.23
2019-03-06T03:55:11.618Z,4.00
2019-03-06T03:57:38.558Z,4.07
2019-03-06T04:00:08.019Z,3.97
2019-03-06T04:02:35.367Z,4.00
2019-03-06T04:05:02.345Z,4.20
2019-03-06T04:07:29.298Z,4.37
2019-03-06T04:09:56.246Z,4.77
2019-03-06T04:12:23.194Z,4.87
2019-03-06T04:14:50.124Z,3.60
2019-03-06T04:17:17.088Z,4.23
2019-03-06T04:19:44.022Z,4.63
2019-03-06T04:22:11.280Z,4.60
2019-03-06T04:24:38.197Z,4.47
2019-03-06T04:27:05.145Z,4.63
2019-03-06T04:29:32.092Z,4.73
2019-03-06T04:31:59.019Z,4.10
2019-03-06T04:34:25.968Z,4.17
2019-03-06T04:36:53.230Z,4.10
2019-03-06T04:39:20.183Z,4.40
2019-03-06T04:41:47.089Z,4.60
2019-03-06T04:44:14.029Z,4.63
2019-03-06T04:46:40.948Z,4.47
2019-03-06T04:49:07.980Z,5.03
2019-03-06T04:51:35.293Z,4.00
2019-03-06T04:54:02.260Z,4.33
2019-03-06T04:56:29.246Z,5.10
2019-03-06T04:58:56.184Z,5.30
2019-03-06T05:01:23.097Z,5.60
2019-03-06T05:03:50.036Z,4.37
2019-03-06T05:06:16.956Z,5.10
2019-03-06T05:08:43.940Z,5.00
2019-03-06T05:11:10.849Z,4.80
2019-03-06T05:13:37.820Z,5.83
2019-03-06T05:16:04.803Z,5.87
2019-03-06T05:18:37.991Z,5.70
2019-03-06T05:21:04.914Z,5.70
2019-03-06T05:23:31.858Z,5.63
2019-03-06T05:25:58.773Z,6.27
2019-03-06T05:28:25.728Z,6.00
2019-03-06T05:30:52.679Z,6.10
2019-03-06T05:33:19.671Z,6.50
2019-03-06T05:36:11.965Z,6.23
2019-03-06T05:39:01.599Z,6.30
2019-03-06T05:41:28.507Z,6.67
2019-03-06T05:43:55.475Z,7.37
2019-03-06T05:46:22.405Z,6.90
2019-03-06T05:48:49.346Z,6.97
2019-03-06T05:51:16.269Z,7.67
2019-03-06T05:53:43.233Z,7.13
2019-03-06T05:56:10.223Z,8.20
2019-03-06T05:58:37.178Z,8.73
2019-03-06T06:01:04.588Z,7.77
2019-03-06T06:03:31.545Z,8.63
2019-03-06T06:05:58.476Z,8.27
2019-03-06T06:08:25.423Z,8.10
2019-03-06T06:10:52.386Z,8.77
2019-03-06T06:13:19.358Z,8.60
2019-03-06T06:15:46.285Z,8.60
2019-03-06T06:18:13.231Z,8.30
2019-03-06T06:20:40.480Z,8.60
2019-03-06T06:23:27.065Z,8.17
2019-03-06T06:25:53.985Z,7.87
2019-03-06T06:28:20.958Z,7.93
2019-03-06T06:30:47.971Z,8.27
2019-03-06T06:33:15.070Z,9.10
2019-03-06T06:35:42.047Z,8.90
2019-03-06T06:38:09.022Z,8.27
2019-03-06T06:40:35.952Z,8.57
2019-03-06T06:43:02.865Z,9.43
2019-03-06T06:45:30.003Z,7.53
2019-03-06T06:48:13.612Z,8.70
2019-03-06T06:51:20.221Z,8.00
2019-03-06T06:53:51.469Z,7.50
2019-03-06T06:57:02.280Z,8.70
2019-03-06T06:59:41.797Z,7.90
2019-03-06T07:03:12.091Z,8.97
2019-03-06T07:05:47.354Z,8.80
2019-03-06T07:08:36.831Z,8.13
2019-03-06T07:11:18.768Z,8.10
2019-03-06T07:14:14.226Z,8.07
2019-03-06T07:16:50.781Z,7.90
2019-03-06T07:19:43.836Z,7.53
2019-03-06T07:22:30.625Z,8.70
2019-03-06T07:25:26.706Z,8.83
2019-03-06T07:28:01.304Z,9.10
2019-03-06T07:31:02.968Z,8.70
2019-03-06T07:33:58.627Z,8.97
2019-03-06T07:36:46.952Z,9.13
2019-03-06T07:39:27.362Z,8.93
2019-03-06T07:42:11.499Z,8.30
2019-03-06T07:44:57.053Z,7.80
2019-03-06T07:47:35.326Z,9.67
2019-03-06T07:50:20.601Z,9.10
2019-03-06T07:53:42.769Z,9.23
2019-03-06T07:56:15.382Z,8.73
2019-03-06T07:58:52.977Z,9.33
2019-03-06T08:01:20.435Z,8.90
2019-03-06T08:04:02.794Z,8.60
2019-03-06T08:06:30.164Z,8.10
2019-03-06T08:08:57.122Z,8.50
2019-03-06T08:11:35.232Z,10.20
2019-03-06T08:14:21.888Z,10.20
2019-03-06T08:16:50.216Z,8.53
2019-03-06T08:19:51.860Z,8.20
2019-03-06T08:22:25.894Z,8.30
2019-03-06T08:25:06.926Z,9.00
2019-03-06T08:27:33.890Z,7.93
2019-03-06T08:30:00.935Z,8.60
2019-03-06T08:32:32.731Z,9.00
2019-03-06T08:35:00.002Z,8.20
2019-03-06T08:37:27.348Z,8.60
2019-03-06T08:39:54.374Z,9.20
2019-03-06T08:42:21.533Z,9.30
2019-03-06T08:44:48.608Z,8.73
2019-03-06T08:47:41.032Z,7.70
2019-03-06T08:50:26.561Z,8.63
2019-03-06T08:53:28.585Z,8.70
2019-03-06T08:56:15.597Z,7.00
2019-03-06T08:59:02.295Z,7.60
2019-03-06T09:01:47.597Z,7.23
2019-03-06T09:04:34.521Z,6.63
2019-03-06T09:07:36.565Z,5.83
2019-03-06T09:10:39.775Z,6.60
2019-03-06T09:13:31.175Z,6.40
2019-03-06T09:16:13.740Z,6.47
2019-03-06T09:18:58.922Z,5.50
2019-03-06T09:22:04.037Z,5.20
2019-03-06T09:24:45.570Z,5.50
2019-03-06T09:27:35.230Z,5.93
2019-03-06T09:30:22.155Z,5.10
2019-03-06T09:32:56.480Z,5.00
2019-03-06T09:35:33.855Z,5.93
2019-03-06T09:38:21.951Z,6.07
2019-03-06T09:41:16.749Z,6.00
2019-03-06T09:44:03.416Z,6.87
2019-03-06T09:46:53.052Z,5.80
2019-03-06T09:49:35.626Z,6.70
2019-03-06T09:52:25.431Z,6.17
2019-03-06T09:55:07.955Z,5.93
2019-03-06T09:57:54.100Z,6.40
2019-03-06T10:00:37.082Z,6.63
2019-03-06T10:03:29.546Z,6.50
2019-03-06T10:06:08.558Z,5.90
2019-03-06T10:08:55.125Z,5.80
2019-03-06T10:11:50.788Z,5.93
2019-03-06T10:14:22.685Z,6.10
2019-03-06T10:16:58.614Z,5.70
2019-03-06T10:19:35.934Z,5.30
2019-03-06T10:22:03.048Z,5.00
2019-03-06T10:24:30.011Z,4.40
2019-03-06T10:26:56.963Z,4.00
2019-03-06T10:29:24.535Z,3.20
2019-03-06T10:31:51.470Z,2.93
2019-03-06T10:34:18.641Z,3.10
2019-03-06T10:36:45.760Z,2.80
2019-03-06T10:39:14.999Z,2.67
2019-03-06T10:41:41.937Z,2.60
2019-03-06T10:44:09.098Z,3.00
2019-03-06T10:46:36.039Z,3.10
2019-03-06T10:49:03.199Z,2.80
2019-03-06T10:51:31.148Z,2.23
2019-03-06T10:53:58.352Z,3.07
2019-03-06T10:56:25.567Z,2.93
2019-03-06T10:58:52.567Z,2.93
2019-03-06T11:01:19.685Z,2.67
2019-03-06T11:04:08.563Z,2.27
2019-03-06T11:06:35.506Z,1.90
2019-03-06T11:09:06.480Z,2.53
2019-03-06T11:11:33.397Z,2.60
2019-03-06T11:14:06.188Z,3.00
2019-03-06T11:16:29.575Z,2.80
2019-03-06T11:18:58.425Z,2.90
2019-03-06T11:21:25.487Z,2.70
2019-03-06T11:23:52.453Z,2.47
2019-03-06T11:26:19.379Z,2.90
2019-03-06T11:28:46.382Z,2.50
2019-03-06T11:31:13.586Z,2.47
2019-03-06T11:33:40.702Z,2.10
2019-03-06T11:36:07.796Z,1.77
2019-03-06T11:38:34.744Z,1.97
2019-03-06T11:41:01.697Z,2.43
2019-03-06T11:43:29.329Z,2.20
2019-03-06T11:45:56.312Z,2.20
2019-03-06T11:48:23.620Z,2.40
2019-03-06T11:50:50.671Z,1.60
2019-03-06T11:53:17.717Z,2.00
2019-03-06T11:55:44.662Z,2.03
2019-03-06T11:58:14.477Z,2.20
2019-03-06T12:00:43.504Z,1.77
2019-03-06T12:03:11.556Z,2.07
2019-03-06T12:05:38.803Z,2.07
2019-03-06T12:08:08.617Z,2.33
2019-03-06T12:10:35.613Z,2.17
2019-03-06T12:13:04.885Z,1.60
2019-03-06T12:15:31.857Z,1.67
2019-03-06T12:17:58.781Z,2.23
2019-03-06T12:20:25.766Z,2.13
2019-03-06T12:22:52.698Z,2.10
2019-03-06T12:25:20.049Z,1.37
2019-03-06T12:27:47.074Z,1.67
2019-03-06T12:30:14.481Z,1.83
2019-03-06T12:32:41.501Z,1.30
2019-03-06T12:35:08.768Z,1.57
2019-03-06T12:37:35.905Z,1.60
2019-03-06T12:40:11.953Z,1.57
2019-03-06T12:42:33.074Z,1.47
2019-03-06T12:45:00.039Z,1.57
2019-03-06T12:47:27.120Z,1.93
2019-03-06T12:49:54.026Z,1.70
2019-03-06T12:52:20.973Z,1.83
2019-03-06T12:54:47.908Z,1.40
2019-03-06T12:57:14.858Z,1.60
2019-03-06T12:59:41.807Z,1.73
2019-03-06T13:02:08.977Z,1.83
2019-03-06T13:04:36.134Z,1.90
2019-03-06T13:07:03.298Z,1.40
2019-03-06T13:09:30.211Z,1.67
2019-03-06T13:11:57.211Z,3.07
2019-03-06T13:14:24.322Z,2.17
2019-03-06T13:16:51.680Z,5.50
2019-03-06T13:19:18.599Z,1.80
2019-03-06T13:21:45.544Z,1.90
2019-03-06T13:24:12.739Z,2.47
2019-03-06T13:26:39.774Z,2.40
2019-03-06T13:29:06.696Z,2.10
2019-03-06T13:31:33.966Z,1.67
2019-03-06T13:34:08.532Z,1.87
2019-03-06T13:36:35.472Z,1.87
2019-03-06T13:39:06.286Z,1.63
2019-03-06T13:41:31.944Z,1.40
2019-03-06T13:43:58.931Z,1.67
2019-03-06T13:46:26.191Z,1.73
2019-03-06T13:48:53.138Z,1.83
2019-03-06T13:51:20.130Z,1.73
2019-03-06T13:53:47.336Z,1.70
2019-03-06T13:56:14.276Z,1.40
2019-03-06T13:58:41.609Z,1.80
2019-03-06T14:01:10.530Z,1.43
2019-03-06T14:03:37.550Z,1.33
2019-03-06T14:06:04.467Z,2.27
2019-03-06T14:08:31.637Z,1.37
2019-03-06T14:10:58.587Z,1.00
2019-03-06T14:13:25.585Z,1.60
2019-03-06T14:15:54.142Z,1.23
2019-03-06T14:18:21.269Z,1.50
2019-03-06T14:20:48.393Z,1.37
2019-03-06T14:23:15.456Z,2.33
2019-03-06T14:25:42.741Z,4.90
2019-03-06T14:28:09.698Z,3.10
2019-03-06T14:30:37.095Z,3.50
2019-03-06T14:33:04.350Z,2.17
2019-03-06T14:35:31.278Z,1.70
2019-03-06T14:37:58.259Z,2.10
2019-03-06T14:40:28.120Z,1.77
2019-03-06T14:42:55.465Z,1.33
2019-03-06T14:45:22.393Z,1.53
2019-03-06T14:47:49.361Z,2.73
2019-03-06T14:50:16.292Z,2.10
2019-03-06T14:52:43.243Z,2.10
2019-03-06T14:55:10.840Z,1.33
2019-03-06T14:57:37.829Z,1.30
2019-03-06T15:00:05.211Z,1.53
2019-03-06T15:02:32.191Z,1.37
2019-03-06T15:04:59.161Z,1.40
2019-03-06T15:07:26.149Z,1.40
2019-03-06T15:09:53.095Z,1.50
2019-03-06T15:12:19.993Z,1.70
2019-03-06T15:14:47.423Z,1.70
2019-03-06T15:17:14.328Z,2.27
2019-03-06T15:19:41.288Z,1.20
2019-03-06T15:22:08.210Z,1.83
2019-03-06T15:24:41.280Z,1.90
2019-03-06T15:27:04.115Z,1.30
2019-03-06T15:29:31.256Z,1.47
2019-03-06T15:31:58.170Z,1.40
2019-03-06T15:34:25.156Z,1.30
2019-03-06T15:36:52.050Z,1.43
2019-03-06T15:39:25.820Z,1.73
2019-03-06T15:42:00.370Z,1.47
2019-03-06T15:44:22.514Z,1.20
2019-03-06T15:46:49.885Z,0.93
2019-03-06T15:49:16.813Z,1.17
2019-03-06T15:51:43.743Z,1.77
2019-03-06T15:54:11.011Z,1.50
2019-03-06T15:56:38.121Z,1.00
2019-03-06T15:59:14.401Z,1.20
2019-03-06T16:01:34.021Z,1.20
2019-03-06T16:04:00.993Z,0.93
2019-03-06T16:06:27.913Z,1.40
2019-03-06T16:08:54.939Z,1.70
2019-03-06T16:11:21.855Z,1.03
2019-03-06T16:13:48.815Z,1.63
2019-03-06T16:16:15.809Z,1.23
2019-03-06T16:18:43.070Z,1.20
2019-03-06T16:21:10.080Z,1.87
2019-03-06T16:23:37.036Z,1.37
2019-03-06T16:26:04.025Z,1.50
2019-03-06T16:28:31.778Z,1.20
2019-03-06T16:30:59.514Z,1.27
2019-03-06T16:33:27.093Z,1.20
2019-03-06T16:35:54.675Z,0.97
2019-03-06T16:38:21.698Z,1.40
2019-03-06T16:40:48.627Z,1.47
2019-03-06T16:43:16.087Z,1.10
2019-03-06T16:45:43.049Z,2.17
2019-03-06T16:48:10.081Z,1.53
2019-03-06T16:50:37.454Z,1.20
2019-03-06T16:53:04.639Z,1.43
2019-03-06T16:55:31.723Z,1.60
2019-03-06T16:57:59.258Z,1.13
2019-03-06T17:00:29.252Z,1.60
2019-03-06T17:02:58.246Z,1.87
2019-03-06T17:05:25.692Z,1.50
2019-03-06T17:07:53.055Z,1.67
2019-03-06T17:10:21.280Z,1.73
2019-03-06T17:12:48.805Z,1.47
2019-03-06T17:15:16.964Z,1.57
2019-03-06T17:17:43.933Z,1.10
2019-03-06T17:20:14.177Z,1.40
2019-03-06T17:22:41.103Z,1.00
2019-03-06T17:25:08.178Z,0.83
2019-03-06T17:27:35.097Z,2.00
2019-03-06T17:30:02.669Z,1.30
2019-03-06T17:32:29.704Z,1.47
2019-03-06T17:34:56.645Z,1.30
2019-03-06T17:37:23.590Z,1.30
2019-03-06T17:39:50.567Z,1.30
2019-03-06T17:42:18.031Z,2.10
2019-03-06T17:44:44.976Z,1.87
2019-03-06T17:47:11.891Z,1.40
2019-03-06T17:49:38.870Z,1.20
2019-03-06T17:52:07.410Z,2.03
2019-03-06T17:54:34.596Z,1.67
2019-03-06T17:57:01.652Z,1.63
2019-03-06T17:59:28.773Z,1.30
2019-03-06T18:01:55.737Z,1.40
2019-03-06T18:04:23.718Z,1.20
2019-03-06T18:06:50.661Z,1.70
2019-03-06T18:09:17.573Z,1.63
2019-03-06T18:11:44.646Z,1.30
2019-03-06T18:14:12.754Z,1.53
2019-03-06T18:16:39.821Z,1.60
2019-03-06T18:19:06.742Z,1.77
2019-03-06T18:21:33.668Z,1.10
2019-03-06T18:24:00.686Z,1.87
2019-03-06T18:26:27.635Z,2.17
2019-03-06T18:28:54.748Z,1.80
2019-03-06T18:31:21.709Z,1.57
2019-03-06T18:33:48.845Z,1.23
2019-03-06T18:36:15.787Z,1.70
2019-03-06T18:38:42.745Z,1.87
2019-03-06T18:41:09.680Z,1.67
2019-03-06T18:43:36.620Z,2.07
2019-03-06T18:46:04.013Z,1.90
2019-03-06T18:48:30.924Z,1.53
2019-03-06T18:50:57.858Z,1.57
2019-03-06T18:53:24.787Z,1.60
2019-03-06T18:55:51.766Z,1.60
2019-03-06T18:58:18.695Z,1.50
2019-03-06T19:00:45.672Z,1.70
2019-03-06T19:03:12.597Z,1.40
2019-03-06T19:05:39.542Z,2.43
2019-03-06T19:08:06.785Z,1.30
2019-03-06T19:10:33.856Z,1.70
2019-03-06T19:13:00.777Z,2.30
2019-03-06T19:15:28.066Z,1.70
2019-03-06T19:17:55.082Z,1.93
2019-03-06T19:20:22.128Z,1.63
2019-03-06T19:22:49.755Z,1.87
2019-03-06T19:25:17.026Z,1.40
2019-03-06T19:27:44.278Z,1.80
2019-03-06T19:30:16.122Z,1.90
2019-03-06T19:32:43.083Z,1.40
2019-03-06T19:35:09.999Z,1.97
2019-03-06T19:37:36.977Z,1.57
2019-03-06T19:40:04.227Z,1.77
2019-03-06T19:42:31.198Z,1.80
2019-03-06T19:44:58.430Z,1.90
2019-03-06T19:47:25.427Z,1.67
2019-03-06T19:49:52.391Z,1.50
2019-03-06T19:52:19.368Z,2.13
2019-03-06T19:54:46.293Z,2.27
2019-03-06T19:57:13.306Z,2.10
2019-03-06T19:59:40.281Z,1.63
2019-03-06T20:02:07.254Z,2.10
2019-03-06T20:04:34.467Z,1.53
2019-03-06T20:07:01.416Z,1.93
2019-03-06T20:09:28.329Z,1.47
2019-03-06T20:11:55.857Z,1.90
2019-03-06T20:14:22.814Z,2.30
2019-03-06T20:16:49.919Z,2.10
2019-03-06T20:19:16.848Z,2.10
2019-03-06T20:21:43.886Z,1.83
2019-03-06T20:24:11.144Z,2.70
2019-03-06T20:26:38.111Z,1.83
2019-03-06T20:29:05.025Z,2.03
2019-03-06T20:31:31.987Z,1.80
2019-03-06T20:33:58.931Z,2.03
2019-03-06T20:36:25.911Z,2.37
2019-03-06T20:38:52.880Z,2.00
2019-03-06T20:41:19.892Z,1.63
2019-03-06T20:43:46.858Z,2.13
2019-03-06T20:46:14.082Z,1.80
2019-03-06T20:48:41.075Z,2.20
2019-03-06T20:51:08.486Z,1.87
2019-03-06T20:53:35.461Z,1.50
2019-03-06T20:56:02.392Z,2.37
2019-03-06T20:58:29.376Z,1.87
2019-03-06T21:00:56.330Z,1.87
2019-03-06T21:03:23.761Z,2.20
2019-03-06T21:05:50.851Z,2.43
2019-03-06T21:08:18.570Z,1.63
2019-03-06T21:10:45.549Z,2.43
2019-03-06T21:13:12.611Z,4.47
2019-03-06T21:15:39.805Z,2.20
2019-03-06T21:18:06.764Z,1.90
2019-03-06T21:20:33.891Z,2.60
2019-03-06T21:23:01.275Z,2.10
2019-03-06T21:25:28.581Z,2.00
2019-03-06T21:27:55.792Z,2.60
2019-03-06T21:30:42.822Z,1.93
2019-03-06T21:33:10.246Z,2.10
2019-03-06T21:35:37.562Z,2.63
2019-03-06T21:38:04.598Z,2.60
2019-03-06T21:40:31.743Z,2.23
2019-03-06T21:43:00.313Z,2.93
2019-03-06T21:45:27.453Z,2.83
2019-03-06T21:47:54.821Z,2.80
2019-03-06T21:50:21.841Z,2.77
2019-03-06T21:52:48.877Z,2.70
2019-03-06T21:55:16.095Z,2.40
2019-03-06T21:57:44.226Z,2.60
2019-03-06T22:00:15.977Z,2.70
2019-03-06T22:02:43.074Z,3.50
2019-03-06T22:05:10.394Z,4.70
2019-03-06T22:07:37.473Z,3.10
2019-03-06T22:10:05.316Z,2.67
2019-03-06T22:12:32.475Z,2.73
2019-03-06T22:14:59.776Z,3.10
2019-03-06T22:17:26.822Z,3.10
2019-03-06T22:19:53.819Z,2.90
2019-03-06T22:22:21.281Z,2.90
2019-03-06T22:24:48.262Z,2.33
2019-03-06T22:27:15.204Z,3.30
2019-03-06T22:29:42.165Z,3.20
2019-03-06T22:32:09.187Z,2.50
2019-03-06T22:34:36.165Z,2.90
2019-03-06T22:37:03.231Z,3.27
2019-03-06T22:39:30.161Z,2.80
2019-03-06T22:41:57.318Z,2.67
2019-03-06T22:44:24.274Z,2.70
2019-03-06T22:46:51.256Z,3.00
2019-03-06T22:49:18.208Z,3.30
2019-03-06T22:51:45.144Z,3.13
2019-03-06T22:54:12.160Z,2.70
2019-03-06T22:56:39.107Z,2.67
2019-03-06T22:59:06.145Z,3.00
2019-03-06T23:01:35.342Z,2.80
2019-03-06T23:04:02.536Z,2.93
2019-03-06T23:06:29.687Z,2.53
2019-03-06T23:08:56.608Z,2.57
2019-03-06T23:11:23.568Z,3.10
2019-03-06T23:13:50.680Z,2.70
2019-03-06T23:16:17.638Z,2.90
2019-03-06T23:18:44.557Z,2.70
2019-03-06T23:21:11.513Z,2.77
2019-03-06T23:23:38.630Z,3.77
2019-03-06T23:26:05.589Z,2.30
2019-03-06T23:28:32.512Z,2.83
2019-03-06T23:30:59.486Z,3.20
2019-03-06T23:33:26.543Z,3.63
2019-03-06T23:35:53.502Z,2.90
2019-03-06T23:38:20.442Z,2.90
2019-03-06T23:40:47.623Z,3.00
2019-03-06T23:43:14.556Z,2.47
2019-03-06T23:45:41.514Z,3.00
2019-03-06T23:48:08.459Z,3.00
2019-03-06T23:50:35.409Z,2.67
2019-03-06T23:53:04.681Z,3.00
2019-03-06T23:55:31.870Z,2.63
2019-03-06T23:57:58.896Z,2.47
